createdAt,value
2016-12-05T00:00:03.412Z,99.99
2016-12-05T00:01:03.443Z,99.99
2016-12-05T00:02:03.317Z,99.99
2016-12-05T00:03:02.955Z,99.99
2016-12-05T00:04:03.078Z,99.99
2016-12-05T00:05:03.343Z,99.99
2016-12-05T00:06:03.247Z,99.99
2016-12-05T00:07:03.204Z,99.99
2016-12-05T00:08:03.881Z,99.99
2016-12-05T00:09:04.050Z,99.99
2016-12-05T00:10:02.848Z,99.99
2016-12-05T00:11:03.487Z,99.99
2016-12-05T00:12:03.316Z,99.99
2016-12-05T00:13:03.873Z,99.99
2016-12-05T00:14:03.440Z,99.99
2016-12-05T00:15:03.372Z,99.99
2016-12-05T00:16:03.314Z,99.99
2016-12-05T00:17:03.333Z,99.99
2016-12-05T00:18:03.357Z,99.99
2016-12-05T00:19:03.588Z,99.99
2016-12-05T00:20:03.322Z,99.99
2016-12-05T00:21:03.381Z,99.99
2016-12-05T00:22:04.089Z,99.99
2016-12-05T00:23:03.883Z,99.99
2016-12-05T00:24:03.504Z,99.99
2016-12-05T00:25:04.481Z,99.99
2016-12-05T00:26:03.474Z,99.99
2016-12-05T00:27:03.387Z,99.99
2016-12-05T00:28:03.631Z,99.99
2016-12-05T00:29:03.250Z,99.99
2016-12-05T00:30:03.497Z,99.99
2016-12-05T00:31:03.652Z,99.99
2016-12-05T00:32:03.460Z,99.99
2016-12-05T00:33:03.430Z,99.99
2016-12-05T00:34:03.767Z,99.99
2016-12-05T00:35:03.837Z,99.99
2016-12-05T00:36:03.529Z,99.99
2016-12-05T00:37:03.185Z,99.99
2016-12-05T00:38:03.486Z,99.99
2016-12-05T00:39:03.363Z,99.99
2016-12-05T00:40:03.527Z,99.99
2016-12-05T00:41:03.546Z,99.99
2016-12-05T00:42:03.674Z,99.99
2016-12-05T00:43:03.576Z,99.99
2016-12-05T00:44:03.676Z,99.99
2016-12-05T00:45:03.266Z,99.99
2016-12-05T00:46:03.555Z,99.99
2016-12-05T00:47:03.609Z,99.99
2016-12-05T00:48:03.926Z,99.99
2016-12-05T00:49:03.544Z,99.99
2016-12-05T00:50:04.037Z,99.99
2016-12-05T00:51:03.431Z,99.99
2016-12-05T00:52:03.765Z,99.99
2016-12-05T00:53:03.583Z,99.99
2016-12-05T00:54:03.549Z,99.99
2016-12-05T00:55:03.928Z,99.99
2016-12-05T00:56:04.119Z,99.99
2016-12-05T00:57:03.642Z,99.99
2016-12-05T00:58:03.632Z,99.99
2016-12-05T00:59:03.538Z,99.99
2016-12-05T01:00:03.760Z,99.99
2016-12-05T01:01:03.936Z,99.99
2016-12-05T01:02:03.517Z,99.99
2016-12-05T01:03:03.934Z,99.99
2016-12-05T01:04:03.433Z,99.99
2016-12-05T01:05:03.845Z,99.99
2016-12-05T01:06:04.330Z,99.99
2016-12-05T01:07:03.601Z,99.99
2016-12-05T01:08:03.772Z,99.99
2016-12-05T01:09:03.757Z,99.99
2016-12-05T01:10:03.724Z,99.99
2016-12-05T01:11:04.248Z,99.99
2016-12-05T01:12:03.793Z,99.99
2016-12-05T01:13:03.719Z,99.99
2016-12-05T01:14:03.687Z,99.99
2016-12-05T01:15:03.837Z,99.99
2016-12-05T01:16:03.801Z,99.99
2016-12-05T01:17:03.825Z,99.99
2016-12-05T01:18:04.358Z,99.99
2016-12-05T01:19:04.079Z,99.99
2016-12-05T01:20:04.255Z,99.99
2016-12-05T01:21:04.324Z,99.99
2016-12-05T01:22:03.821Z,99.99
2016-12-05T01:23:04.410Z,99.99
2016-12-05T01:24:03.686Z,99.99
2016-12-05T01:25:03.880Z,99.99
2016-12-05T01:26:03.922Z,99.99
2016-12-05T01:27:03.897Z,99.99
2016-12-05T01:28:04.949Z,99.99
2016-12-05T01:29:04.031Z,99.99
2016-12-05T01:30:03.814Z,99.99
2016-12-05T01:31:04.036Z,99.99
2016-12-05T01:32:03.942Z,99.99
2016-12-05T01:33:04.113Z,99.99
2016-12-05T01:34:04.298Z,99.99
2016-12-05T01:35:04.242Z,99.99
2016-12-05T01:36:03.836Z,99.99
2016-12-05T01:37:04.316Z,99.99
2016-12-05T01:38:04.082Z,99.99
2016-12-05T01:39:04.063Z,99.99
2016-12-05T01:40:03.918Z,99.99
2016-12-05T01:41:04.116Z,99.99
2016-12-05T01:42:03.943Z,99.99
2016-12-05T01:43:04.087Z,99.99
2016-12-05T01:44:03.897Z,99.99
2016-12-05T01:45:04.221Z,99.99
2016-12-05T01:46:04.061Z,99.99
2016-12-05T01:47:04.405Z,99.99
2016-12-05T01:48:04.779Z,99.99
2016-12-05T01:49:03.872Z,99.99
2016-12-05T01:50:04.051Z,99.99
2016-12-05T01:51:03.859Z,99.99
2016-12-05T01:52:04.804Z,99.99
2016-12-05T01:53:04.756Z,99.99
2016-12-05T01:54:04.153Z,99.99
2016-12-05T01:55:04.315Z,99.99
2016-12-05T01:56:04.139Z,99.99
2016-12-05T01:57:04.750Z,99.99
2016-12-05T01:58:04.048Z,99.99
2016-12-05T01:59:04.154Z,99.99
2016-12-05T02:00:04.765Z,99.99
2016-12-05T02:01:04.236Z,99.99
2016-12-05T02:02:04.175Z,99.99
2016-12-05T02:03:04.324Z,99.99
2016-12-05T02:04:04.427Z,99.99
2016-12-05T02:05:04.239Z,99.99
2016-12-05T02:06:04.251Z,99.99
2016-12-05T02:07:04.360Z,99.99
2016-12-05T02:08:04.413Z,99.99
2016-12-05T02:09:04.123Z,99.99
2016-12-05T02:10:04.329Z,99.99
2016-12-05T02:11:04.797Z,99.99
2016-12-05T02:12:05.405Z,99.99
2016-12-05T02:13:04.762Z,99.99
2016-12-05T02:14:04.491Z,99.99
2016-12-05T02:15:04.126Z,99.99
2016-12-05T02:16:05.209Z,99.99
2016-12-05T02:17:04.222Z,99.99
2016-12-05T02:18:04.275Z,99.99
2016-12-05T02:19:04.634Z,99.99
2016-12-05T02:20:04.626Z,99.99
2016-12-05T02:21:05.169Z,99.99
2016-12-05T02:22:04.953Z,99.99
2016-12-05T02:23:04.345Z,99.99
2016-12-05T02:24:04.401Z,99.99
2016-12-05T02:25:05.003Z,99.99
2016-12-05T02:26:05.065Z,99.99
2016-12-05T02:27:04.350Z,99.99
2016-12-05T02:28:04.223Z,99.99
2016-12-05T02:29:04.209Z,99.99
2016-12-05T02:30:04.381Z,99.99
2016-12-05T02:31:04.569Z,99.99
2016-12-05T02:32:04.976Z,99.99
2016-12-05T02:33:04.745Z,99.99
2016-12-05T02:34:04.418Z,99.99
2016-12-05T02:35:04.419Z,99.99
2016-12-05T02:36:05.662Z,99.99
2016-12-05T02:37:04.301Z,99.99
2016-12-05T02:38:04.338Z,99.99
2016-12-05T02:39:04.277Z,99.99
2016-12-05T02:40:04.818Z,99.99
2016-12-05T02:41:04.995Z,99.99
2016-12-05T02:42:04.854Z,99.99
2016-12-05T02:43:04.848Z,99.99
2016-12-05T02:44:04.994Z,99.99
2016-12-05T02:45:04.594Z,99.99
2016-12-05T02:46:04.876Z,99.99
2016-12-05T02:47:05.082Z,99.99
2016-12-05T02:48:04.872Z,99.99
2016-12-05T02:49:04.731Z,99.99
2016-12-05T02:50:04.642Z,99.99
2016-12-05T02:51:04.683Z,99.99
2016-12-05T02:52:04.447Z,99.99
2016-12-05T02:53:04.551Z,99.99
2016-12-05T02:54:05.016Z,99.99
2016-12-05T02:55:04.929Z,99.99
2016-12-05T02:56:05.116Z,99.99
2016-12-05T02:57:04.867Z,99.99
2016-12-05T02:58:04.493Z,99.99
2016-12-05T02:59:04.986Z,99.99
2016-12-05T03:00:05.346Z,99.99
2016-12-05T03:01:04.731Z,99.99
2016-12-05T03:02:05.606Z,99.99
2016-12-05T03:03:04.827Z,99.99
2016-12-05T03:04:04.837Z,99.99
2016-12-05T03:05:04.799Z,99.99
2016-12-05T03:06:05.005Z,99.99
2016-12-05T03:07:04.790Z,99.99
2016-12-05T03:08:04.916Z,99.99
2016-12-05T03:09:05.092Z,99.99
2016-12-05T03:10:04.729Z,99.99
2016-12-05T03:11:05.141Z,99.99
2016-12-05T03:12:04.809Z,99.99
2016-12-05T03:13:05.278Z,99.99
2016-12-05T03:14:04.856Z,99.99
2016-12-05T03:15:05.084Z,99.99
2016-12-05T03:16:04.627Z,99.99
2016-12-05T03:17:04.976Z,99.99
2016-12-05T03:18:05.473Z,99.99
2016-12-05T03:19:04.992Z,99.99
2016-12-05T03:20:04.691Z,99.99
2016-12-05T03:21:05.135Z,99.99
2016-12-05T03:22:04.985Z,99.99
2016-12-05T03:23:05.398Z,99.99
2016-12-05T03:24:04.830Z,99.99
2016-12-05T03:25:05.162Z,99.99
2016-12-05T03:26:05.100Z,99.99
2016-12-05T03:27:04.868Z,99.99
2016-12-05T03:28:04.845Z,99.99
2016-12-05T03:29:04.927Z,99.99
2016-12-05T03:30:05.232Z,99.99
2016-12-05T03:31:04.829Z,99.99
2016-12-05T03:32:04.755Z,99.99
2016-12-05T03:33:04.783Z,99.99
2016-12-05T03:34:05.451Z,99.99
2016-12-05T03:35:05.794Z,99.99
2016-12-05T03:36:05.124Z,99.99
2016-12-05T03:37:05.161Z,99.99
2016-12-05T03:38:05.269Z,99.99
2016-12-05T03:39:05.245Z,99.99
2016-12-05T03:40:05.306Z,99.99
2016-12-05T03:41:05.214Z,99.99
2016-12-05T03:42:05.342Z,99.99
2016-12-05T03:43:04.792Z,99.99
2016-12-05T03:44:04.867Z,99.99
2016-12-05T03:45:05.046Z,99.99
2016-12-05T03:46:05.160Z,99.99
2016-12-05T03:47:05.395Z,99.99
2016-12-05T03:48:05.212Z,99.99
2016-12-05T03:49:04.987Z,99.99
2016-12-05T03:50:05.359Z,99.99
2016-12-05T03:51:04.963Z,99.99
2016-12-05T03:52:05.068Z,99.99
2016-12-05T03:53:05.645Z,99.99
2016-12-05T03:54:05.235Z,99.99
2016-12-05T03:55:05.245Z,99.99
2016-12-05T03:56:05.234Z,99.99
2016-12-05T03:57:05.469Z,99.99
2016-12-05T03:58:04.988Z,99.99
2016-12-05T03:59:05.604Z,99.99
2016-12-05T04:00:05.186Z,99.99
2016-12-05T04:01:05.076Z,99.99
2016-12-05T04:02:05.587Z,99.99
2016-12-05T04:03:05.281Z,99.99
2016-12-05T04:04:05.165Z,99.99
2016-12-05T04:05:05.359Z,99.99
2016-12-05T04:06:05.469Z,99.99
2016-12-05T04:07:05.294Z,99.99
2016-12-05T04:08:05.546Z,99.99
2016-12-05T04:09:05.297Z,99.99
2016-12-05T04:10:05.583Z,99.99
2016-12-05T04:11:05.411Z,99.99
2016-12-05T04:12:05.253Z,99.99
2016-12-05T04:13:05.647Z,99.99
2016-12-05T04:14:05.367Z,99.99
2016-12-05T04:15:05.945Z,99.99
2016-12-05T04:16:05.573Z,99.99
2016-12-05T04:17:05.637Z,99.99
2016-12-05T04:18:05.835Z,99.99
2016-12-05T04:19:05.361Z,99.99
2016-12-05T04:20:05.382Z,99.99
2016-12-05T04:21:05.349Z,99.99
2016-12-05T04:22:05.490Z,99.99
2016-12-05T04:23:05.746Z,99.99
2016-12-05T04:24:05.556Z,99.99
2016-12-05T04:25:05.592Z,99.99
2016-12-05T04:26:05.238Z,99.99
2016-12-05T04:27:05.968Z,99.99
2016-12-05T04:28:05.397Z,99.99
2016-12-05T04:29:05.716Z,99.99
2016-12-05T04:30:05.643Z,99.99
2016-12-05T04:31:05.643Z,99.99
2016-12-05T04:32:06.084Z,99.99
2016-12-05T04:33:05.377Z,99.99
2016-12-05T04:34:05.553Z,99.99
2016-12-05T04:35:05.821Z,99.99
2016-12-05T04:36:05.371Z,99.99
2016-12-05T04:37:05.246Z,99.99
2016-12-05T04:38:06.135Z,99.99
2016-12-05T04:39:06.171Z,99.99
2016-12-05T04:40:05.985Z,99.99
2016-12-05T04:41:05.333Z,99.99
2016-12-05T04:42:05.718Z,99.99
2016-12-05T04:43:05.547Z,99.99
2016-12-05T04:44:05.755Z,99.99
2016-12-05T04:45:05.709Z,99.99
2016-12-05T04:46:05.392Z,99.99
2016-12-05T04:47:05.637Z,99.99
2016-12-05T04:48:05.422Z,99.99
2016-12-05T04:49:05.819Z,99.99
2016-12-05T04:50:06.407Z,99.99
2016-12-05T04:51:05.668Z,99.99
2016-12-05T04:52:05.823Z,99.99
2016-12-05T04:53:05.571Z,99.99
2016-12-05T04:54:05.653Z,99.99
2016-12-05T04:55:05.599Z,99.99
2016-12-05T04:56:05.992Z,99.99
2016-12-05T04:57:05.844Z,99.99
2016-12-05T04:58:05.785Z,99.99
2016-12-05T04:59:05.965Z,99.99
2016-12-05T05:00:05.975Z,99.99
2016-12-05T05:01:05.949Z,99.99
2016-12-05T05:02:06.145Z,99.99
2016-12-05T05:03:06.128Z,99.99
2016-12-05T05:04:05.832Z,99.99
2016-12-05T05:05:05.862Z,99.99
2016-12-05T05:06:06.399Z,99.99
2016-12-05T05:07:05.854Z,99.99
2016-12-05T05:08:06.135Z,99.99
2016-12-05T05:09:05.843Z,99.99
2016-12-05T05:10:06.141Z,99.99
2016-12-05T05:11:05.853Z,99.99
2016-12-05T05:12:06.006Z,99.99
2016-12-05T05:13:05.785Z,99.99
2016-12-05T05:14:05.907Z,99.99
2016-12-05T05:15:06.220Z,99.99
2016-12-05T05:16:05.966Z,99.99
2016-12-05T05:17:06.041Z,99.99
2016-12-05T05:18:05.889Z,99.99
2016-12-05T05:19:06.235Z,99.99
2016-12-05T05:20:06.324Z,99.99
2016-12-05T05:21:06.540Z,99.99
2016-12-05T05:22:06.132Z,99.99
2016-12-05T05:23:06.627Z,99.99
2016-12-05T05:24:06.515Z,99.99
2016-12-05T05:25:05.993Z,99.99
2016-12-05T05:26:06.617Z,99.99
2016-12-05T05:27:06.340Z,99.99
2016-12-05T05:28:06.400Z,99.99
2016-12-05T05:29:07.138Z,99.99
2016-12-05T05:30:06.644Z,99.99
2016-12-05T05:31:06.428Z,99.99
2016-12-05T05:32:06.508Z,99.99
2016-12-05T05:33:06.560Z,99.99
2016-12-05T05:34:06.727Z,99.99
2016-12-05T05:35:06.455Z,99.99
2016-12-05T05:36:06.401Z,99.99
2016-12-05T05:37:06.352Z,99.99
2016-12-05T05:38:06.757Z,99.99
2016-12-05T05:39:05.926Z,99.99
2016-12-05T05:40:07.001Z,99.99
2016-12-05T05:41:06.095Z,99.99
2016-12-05T05:42:06.281Z,99.99
2016-12-05T05:43:06.872Z,99.99
2016-12-05T05:44:06.511Z,99.99
2016-12-05T05:45:06.104Z,99.99
2016-12-05T05:46:06.352Z,99.99
2016-12-05T05:47:06.339Z,99.99
2016-12-05T05:48:06.357Z,99.99
2016-12-05T05:49:06.600Z,99.99
2016-12-05T05:50:06.157Z,99.99
2016-12-05T05:51:06.951Z,99.99
2016-12-05T05:52:07.001Z,99.99
2016-12-05T05:53:06.597Z,99.99
2016-12-05T05:54:06.639Z,99.99
2016-12-05T05:55:06.418Z,99.99
2016-12-05T05:56:06.636Z,99.99
2016-12-05T05:57:06.849Z,99.99
2016-12-05T05:58:06.156Z,99.99
2016-12-05T05:59:06.665Z,99.99
2016-12-05T06:00:06.667Z,99.99
2016-12-05T06:01:06.618Z,99.99
2016-12-05T06:02:06.417Z,99.99
2016-12-05T06:03:07.032Z,99.99
2016-12-05T06:04:06.421Z,99.99
2016-12-05T06:05:06.525Z,99.99
2016-12-05T06:06:06.876Z,99.99
2016-12-05T06:07:06.369Z,99.99
2016-12-05T06:08:06.778Z,99.99
2016-12-05T06:09:07.077Z,99.99
2016-12-05T06:10:07.007Z,99.99
2016-12-05T06:11:06.657Z,99.99
2016-12-05T06:12:06.917Z,99.99
2016-12-05T06:13:06.303Z,99.99
2016-12-05T06:14:06.344Z,99.99
2016-12-05T06:15:06.834Z,99.99
2016-12-05T06:16:06.553Z,99.99
2016-12-05T06:17:06.323Z,99.99
2016-12-05T06:18:06.800Z,99.99
2016-12-05T06:19:06.630Z,99.99
2016-12-05T06:20:06.806Z,99.99
2016-12-05T06:21:06.793Z,99.99
2016-12-05T06:22:06.415Z,99.99
2016-12-05T06:23:06.764Z,99.99
2016-12-05T06:24:06.575Z,99.99
2016-12-05T06:25:06.644Z,99.99
2016-12-05T06:26:06.793Z,99.99
2016-12-05T06:27:06.844Z,99.99
2016-12-05T06:28:06.721Z,99.99
2016-12-05T06:29:06.925Z,99.99
2016-12-05T06:30:06.370Z,99.99
2016-12-05T06:31:06.246Z,99.99
2016-12-05T06:32:07.487Z,99.99
2016-12-05T06:33:06.780Z,99.99
2016-12-05T06:34:06.664Z,99.99
2016-12-05T06:35:06.791Z,99.99
2016-12-05T06:36:06.807Z,99.99
2016-12-05T06:37:07.255Z,99.99
2016-12-05T06:38:07.644Z,99.99
2016-12-05T06:39:06.904Z,99.99
2016-12-05T06:40:06.941Z,99.99
2016-12-05T06:41:07.223Z,99.99
2016-12-05T06:42:06.722Z,99.99
2016-12-05T06:43:06.768Z,99.99
2016-12-05T06:44:06.547Z,99.99
2016-12-05T06:45:06.990Z,99.99
2016-12-05T06:46:06.679Z,99.99
2016-12-05T06:47:06.830Z,99.99
2016-12-05T06:48:07.170Z,99.99
2016-12-05T06:49:06.690Z,99.99
2016-12-05T06:50:06.740Z,99.99
2016-12-05T06:51:06.636Z,99.99
2016-12-05T06:52:07.154Z,99.99
2016-12-05T06:53:06.600Z,99.99
2016-12-05T06:54:07.510Z,99.99
2016-12-05T06:55:06.835Z,99.99
2016-12-05T06:56:06.998Z,99.99
2016-12-05T06:57:07.527Z,99.99
2016-12-05T06:58:07.292Z,99.99
2016-12-05T06:59:06.821Z,99.99
2016-12-05T07:00:06.794Z,99.99
2016-12-05T07:01:06.790Z,99.99
2016-12-05T07:02:07.059Z,99.99
2016-12-05T07:03:07.203Z,99.99
2016-12-05T07:04:07.291Z,99.99
2016-12-05T07:05:06.887Z,99.99
2016-12-05T07:06:06.766Z,99.99
2016-12-05T07:07:06.725Z,99.99
2016-12-05T07:08:06.807Z,99.99
2016-12-05T07:09:07.163Z,99.99
2016-12-05T07:10:06.731Z,99.99
2016-12-05T07:11:07.483Z,99.99
2016-12-05T07:12:06.738Z,99.99
2016-12-05T07:13:07.404Z,99.99
2016-12-05T07:14:07.668Z,99.99
2016-12-05T07:15:07.251Z,99.99
2016-12-05T07:16:07.303Z,99.99
2016-12-05T07:17:06.848Z,99.99
2016-12-05T07:18:06.973Z,99.99
2016-12-05T07:19:07.332Z,99.99
2016-12-05T07:20:07.013Z,99.99
2016-12-05T07:21:07.204Z,99.99
2016-12-05T07:22:07.223Z,99.99
2016-12-05T07:23:07.577Z,99.99
2016-12-05T07:24:06.802Z,99.99
2016-12-05T07:25:07.959Z,99.99
2016-12-05T07:26:07.163Z,99.99
2016-12-05T07:27:06.794Z,99.99
2016-12-05T07:28:07.407Z,99.99
2016-12-05T07:29:07.578Z,99.99
2016-12-05T07:30:07.297Z,99.99
2016-12-05T07:31:07.120Z,99.99
2016-12-05T07:32:07.533Z,99.99
2016-12-05T07:33:07.273Z,99.99
2016-12-05T07:34:07.216Z,99.99
2016-12-05T07:35:07.184Z,99.99
2016-12-05T07:36:07.999Z,99.99
2016-12-05T07:37:07.270Z,99.99
2016-12-05T07:38:07.470Z,99.99
2016-12-05T07:39:07.377Z,99.99
2016-12-05T07:40:07.284Z,99.99
2016-12-05T07:41:07.483Z,99.99
2016-12-05T07:42:07.184Z,99.99
2016-12-05T07:43:07.345Z,99.99
2016-12-05T07:44:07.498Z,99.99
2016-12-05T07:45:07.542Z,99.99
2016-12-05T07:46:07.537Z,99.99
2016-12-05T07:47:07.827Z,99.99
2016-12-05T07:48:07.455Z,99.99
2016-12-05T07:49:07.061Z,99.99
2016-12-05T07:50:07.293Z,99.99
2016-12-05T07:51:07.306Z,99.99
2016-12-05T07:52:07.422Z,99.99
2016-12-05T07:53:07.649Z,99.99
2016-12-05T07:54:07.931Z,99.99
2016-12-05T07:55:07.408Z,99.99
2016-12-05T07:56:07.511Z,99.99
2016-12-05T07:57:07.217Z,99.99
2016-12-05T07:58:07.898Z,99.99
2016-12-05T07:59:07.251Z,99.99
2016-12-05T08:00:07.617Z,99.99
2016-12-05T08:01:07.294Z,99.99
2016-12-05T08:02:07.403Z,99.99
2016-12-05T08:03:07.792Z,99.99
2016-12-05T08:04:07.571Z,99.99
2016-12-05T08:05:07.652Z,99.99
2016-12-05T08:06:07.183Z,99.99
2016-12-05T08:07:08.073Z,99.99
2016-12-05T08:08:07.430Z,99.99
2016-12-05T08:09:07.833Z,99.99
2016-12-05T08:10:07.398Z,99.99
2016-12-05T08:11:08.064Z,99.99
2016-12-05T08:12:07.461Z,99.99
2016-12-05T08:13:07.980Z,99.99
2016-12-05T08:14:07.503Z,99.99
2016-12-05T08:15:08.034Z,99.99
2016-12-05T08:16:07.656Z,99.99
2016-12-05T08:17:07.577Z,99.99
2016-12-05T08:18:07.544Z,99.99
2016-12-05T08:19:07.674Z,99.99
2016-12-05T08:20:07.418Z,99.99
2016-12-05T08:21:07.577Z,99.99
2016-12-05T08:22:07.669Z,99.99
2016-12-05T08:23:07.548Z,99.99
2016-12-05T08:24:08.171Z,99.99
2016-12-05T08:25:07.470Z,99.99
2016-12-05T08:26:08.040Z,99.99
2016-12-05T08:27:07.628Z,99.99
2016-12-05T08:28:07.629Z,99.99
2016-12-05T08:29:08.062Z,99.99
2016-12-05T08:30:07.632Z,99.99
2016-12-05T08:31:07.572Z,99.99
2016-12-05T08:32:07.618Z,99.99
2016-12-05T08:33:07.975Z,99.99
2016-12-05T08:34:07.828Z,99.99
2016-12-05T08:35:07.639Z,99.99
2016-12-05T08:36:07.561Z,99.99
2016-12-05T08:37:07.789Z,99.99
2016-12-05T08:38:08.345Z,99.99
2016-12-05T08:39:08.016Z,99.99
2016-12-05T08:40:07.507Z,99.99
2016-12-05T08:41:07.624Z,99.99
2016-12-05T08:42:07.906Z,99.99
2016-12-05T08:43:08.065Z,99.99
2016-12-05T08:44:07.905Z,99.99
2016-12-05T08:45:08.022Z,99.99
2016-12-05T08:46:07.914Z,99.99
2016-12-05T08:47:07.950Z,99.99
2016-12-05T08:48:08.676Z,99.99
2016-12-05T08:49:07.698Z,99.99
2016-12-05T08:50:07.698Z,99.99
2016-12-05T08:51:08.066Z,99.99
2016-12-05T08:52:08.735Z,99.99
2016-12-05T08:53:07.655Z,99.99
2016-12-05T08:54:07.783Z,99.99
2016-12-05T08:55:07.760Z,99.99
2016-12-05T08:56:08.314Z,99.99
2016-12-05T08:57:08.246Z,99.99
2016-12-05T08:58:08.349Z,99.99
2016-12-05T08:59:08.175Z,99.99
2016-12-05T09:00:07.855Z,99.99
2016-12-05T09:01:07.773Z,99.99
2016-12-05T09:02:08.340Z,99.99
2016-12-05T09:03:07.737Z,99.99
2016-12-05T09:04:07.835Z,99.99
2016-12-05T09:05:08.225Z,99.99
2016-12-05T09:06:08.276Z,99.99
2016-12-05T09:07:08.069Z,99.99
2016-12-05T09:08:08.392Z,99.99
2016-12-05T09:09:08.296Z,99.99
2016-12-05T09:10:08.168Z,99.99
2016-12-05T09:11:08.412Z,99.99
2016-12-05T09:12:08.797Z,99.99
2016-12-05T09:13:08.037Z,99.99
2016-12-05T09:14:07.972Z,99.99
2016-12-05T09:15:08.694Z,99.99
2016-12-05T09:16:08.140Z,99.99
2016-12-05T09:17:08.342Z,99.99
2016-12-05T09:18:08.142Z,99.99
2016-12-05T09:19:08.200Z,99.99
2016-12-05T09:20:08.292Z,99.99
2016-12-05T09:21:08.795Z,99.99
2016-12-05T09:22:08.136Z,99.99
2016-12-05T09:23:08.127Z,99.99
2016-12-05T09:24:08.461Z,99.99
2016-12-05T09:25:08.435Z,99.99
2016-12-05T09:26:08.412Z,99.99
2016-12-05T09:27:08.195Z,99.99
2016-12-05T09:28:08.088Z,99.99
2016-12-05T09:29:08.871Z,99.99
2016-12-05T09:30:08.122Z,99.99
2016-12-05T09:31:08.394Z,99.99
2016-12-05T09:32:08.408Z,99.99
2016-12-05T09:33:08.275Z,99.99
2016-12-05T09:34:08.508Z,99.99
2016-12-05T09:35:08.352Z,99.99
2016-12-05T09:36:08.767Z,99.99
2016-12-05T09:37:08.793Z,99.99
2016-12-05T09:38:08.708Z,99.99
2016-12-05T09:39:08.629Z,99.99
2016-12-05T09:40:08.461Z,99.99
2016-12-05T09:41:08.773Z,99.99
2016-12-05T09:42:08.277Z,99.99
2016-12-05T09:43:08.413Z,99.99
2016-12-05T09:44:08.404Z,99.99
2016-12-05T09:45:08.346Z,99.99
2016-12-05T09:46:08.648Z,99.99
2016-12-05T09:47:08.540Z,99.88
2016-12-05T09:48:08.457Z,99.99
2016-12-05T09:49:08.544Z,99.99
2016-12-05T09:50:08.200Z,99.99
2016-12-05T09:51:08.815Z,99.88
2016-12-05T09:52:08.799Z,99.99
2016-12-05T09:53:08.399Z,99.88
2016-12-05T09:54:08.262Z,99.98
2016-12-05T09:55:08.233Z,99.6
2016-12-05T09:56:08.787Z,99.41
2016-12-05T09:57:08.536Z,99.08
2016-12-05T09:58:09.078Z,99.32
2016-12-05T09:59:08.348Z,99.04
2016-12-05T10:00:08.906Z,98.8
2016-12-05T10:01:08.494Z,98.47
2016-12-05T10:02:09.582Z,98.43
2016-12-05T10:03:08.426Z,98.85
2016-12-05T10:04:08.489Z,98.43
2016-12-05T10:05:08.862Z,96.91
2016-12-05T10:06:08.612Z,97.01
2016-12-05T10:07:08.628Z,97.48
2016-12-05T10:08:08.806Z,97.96
2016-12-05T10:09:08.622Z,97.48
2016-12-05T10:10:08.838Z,97.96
2016-12-05T10:11:08.688Z,97.2
2016-12-05T10:12:08.450Z,97.86
2016-12-05T10:13:08.712Z,97.96
2016-12-05T10:14:08.628Z,97.86
2016-12-05T10:15:09.110Z,97.48
2016-12-05T10:16:09.643Z,98.99
2016-12-05T10:17:08.910Z,98.99
2016-12-05T10:18:08.782Z,98.9
2016-12-05T10:19:09.063Z,98.61
2016-12-05T10:20:09.173Z,99.18
2016-12-05T10:21:09.218Z,99.99
2016-12-05T10:22:09.300Z,99.99
2016-12-05T10:23:09.579Z,99.99
2016-12-05T10:24:09.056Z,99.99
2016-12-05T10:25:09.197Z,99.99
2016-12-05T10:26:09.267Z,99.99
2016-12-05T10:27:10.350Z,99.99
2016-12-05T10:28:09.536Z,99.99
2016-12-05T10:29:08.879Z,99.99
2016-12-05T10:30:09.355Z,99.99
2016-12-05T10:31:08.941Z,99.99
2016-12-05T10:32:09.199Z,99.99
2016-12-05T10:33:08.617Z,99.99
2016-12-05T10:34:09.454Z,99.99
2016-12-05T10:35:09.100Z,99.99
2016-12-05T10:36:08.724Z,99.99
2016-12-05T10:37:09.077Z,99.99
2016-12-05T10:38:09.050Z,99.99
2016-12-05T10:39:08.727Z,99.99
2016-12-05T10:40:09.182Z,99.99
2016-12-05T10:41:09.326Z,99.99
2016-12-05T10:42:09.182Z,99.65
2016-12-05T10:43:09.486Z,99.99
2016-12-05T10:44:09.599Z,99.99
2016-12-05T10:45:09.010Z,99.99
2016-12-05T10:46:09.455Z,99.99
2016-12-05T10:47:09.697Z,99.99
2016-12-05T10:48:09.464Z,99.65
2016-12-05T10:49:09.502Z,99.75
2016-12-05T10:50:09.021Z,99.18
2016-12-05T10:51:09.372Z,99.27
2016-12-05T10:52:09.126Z,98.99
2016-12-05T10:53:09.617Z,99.99
2016-12-05T10:54:09.131Z,99.46
2016-12-05T10:55:09.134Z,98.8
2016-12-05T10:56:09.344Z,98.52
2016-12-05T10:57:09.454Z,97.58
2016-12-05T10:58:09.099Z,97.44
2016-12-05T10:59:08.898Z,96.78
2016-12-05T11:00:09.379Z,95.92
2016-12-05T11:01:09.105Z,96.4
2016-12-05T11:02:09.177Z,96.49
2016-12-05T11:03:09.710Z,95.92
2016-12-05T11:04:09.650Z,95.83
2016-12-05T11:05:09.265Z,97.06
2016-12-05T11:06:09.124Z,96.59
2016-12-05T11:07:09.760Z,96.78
2016-12-05T11:08:09.170Z,96.59
2016-12-05T11:09:09.518Z,95.83
2016-12-05T11:10:09.370Z,95.73
2016-12-05T11:11:09.286Z,96.02
2016-12-05T11:12:09.328Z,96.49
2016-12-05T11:13:09.248Z,96.96
2016-12-05T11:14:09.299Z,96.4
2016-12-05T11:15:09.208Z,96.3
2016-12-05T11:16:09.752Z,95.92
2016-12-05T11:17:09.204Z,95.17
2016-12-05T11:18:09.788Z,94.6
2016-12-05T11:19:09.829Z,94.41
2016-12-05T11:20:09.897Z,95.45
2016-12-05T11:21:09.400Z,95.45
2016-12-05T11:22:09.751Z,94.98
2016-12-05T11:23:09.395Z,94.79
2016-12-05T11:24:10.403Z,94.51
2016-12-05T11:25:09.271Z,94.22
2016-12-05T11:26:09.347Z,93.75
2016-12-05T11:27:09.871Z,93.7
2016-12-05T11:28:09.614Z,93.8
2016-12-05T11:29:09.460Z,92.76
2016-12-05T11:30:09.773Z,92.47
2016-12-05T11:31:09.947Z,92.19
2016-12-05T11:32:10.188Z,92.29
2016-12-05T11:33:10.273Z,92
2016-12-05T11:34:10.073Z,91.62
2016-12-05T11:35:10.008Z,92.19
2016-12-05T11:36:10.024Z,91.91
2016-12-05T11:37:09.663Z,91.62
2016-12-05T11:38:09.813Z,90.77
2016-12-05T11:39:09.659Z,91.05
2016-12-05T11:40:09.594Z,90.72
2016-12-05T11:41:09.680Z,89.59
2016-12-05T11:42:09.642Z,89.97
2016-12-05T11:43:09.656Z,90.53
2016-12-05T11:44:10.203Z,90.16
2016-12-05T11:45:09.952Z,90.06
2016-12-05T11:46:09.638Z,89.5
2016-12-05T11:47:09.856Z,89.78
2016-12-05T11:48:09.757Z,89.97
2016-12-05T11:49:09.730Z,89.59
2016-12-05T11:50:10.287Z,89.21
2016-12-05T11:51:10.285Z,89.4
2016-12-05T11:52:09.794Z,88.55
2016-12-05T11:53:10.901Z,88.26
2016-12-05T11:54:09.797Z,87.98
2016-12-05T11:55:09.993Z,88.36
2016-12-05T11:56:09.846Z,88.07
2016-12-05T11:57:10.444Z,89.02
2016-12-05T11:58:09.845Z,89.69
2016-12-05T11:59:09.938Z,89.69
2016-12-05T12:00:10.011Z,89.69
2016-12-05T12:01:10.210Z,89.4
2016-12-05T12:02:10.249Z,89.21
2016-12-05T12:03:10.220Z,89.12
2016-12-05T12:04:10.581Z,88.83
2016-12-05T12:05:10.167Z,89.21
2016-12-05T12:06:10.581Z,89.12
2016-12-05T12:07:10.361Z,89.5
2016-12-05T12:08:09.935Z,89.21
2016-12-05T12:09:10.312Z,90.06
2016-12-05T12:10:10.882Z,90.72
2016-12-05T12:11:10.260Z,91.01
2016-12-05T12:12:10.498Z,91.58
2016-12-05T12:13:10.283Z,92.05
2016-12-05T12:14:10.848Z,91.77
2016-12-05T12:15:10.851Z,92.14
2016-12-05T12:16:10.654Z,91.48
2016-12-05T12:17:10.312Z,91.48
2016-12-05T12:18:10.149Z,91.39
2016-12-05T12:19:10.228Z,91.29
2016-12-05T12:20:10.542Z,91.01
2016-12-05T12:21:10.851Z,91.01
2016-12-05T12:22:10.778Z,90.72
2016-12-05T12:23:11.032Z,90.63
2016-12-05T12:24:10.945Z,89.78
2016-12-05T12:25:10.443Z,88.78
2016-12-05T12:26:10.516Z,88.4
2016-12-05T12:27:10.977Z,88.93
2016-12-05T12:28:10.241Z,90.16
2016-12-05T12:29:10.468Z,89.44
2016-12-05T12:30:10.523Z,89.78
2016-12-05T12:31:10.913Z,89.97
2016-12-05T12:32:10.971Z,90.16
2016-12-05T12:33:10.736Z,91.01
2016-12-05T12:34:10.913Z,90.82
2016-12-05T12:35:10.905Z,90.63
2016-12-05T12:36:10.970Z,91.2
2016-12-05T12:37:10.770Z,91.39
2016-12-05T12:38:10.488Z,91.86
2016-12-05T12:39:10.413Z,90.77
2016-12-05T12:40:10.874Z,90.3
2016-12-05T12:41:10.530Z,91.2
2016-12-05T12:42:11.185Z,91.1
2016-12-05T12:43:10.958Z,91.1
2016-12-05T12:44:10.703Z,91.2
2016-12-05T12:45:10.848Z,91.2
2016-12-05T12:46:10.553Z,90.53
2016-12-05T12:47:10.985Z,90.86
2016-12-05T12:48:10.922Z,90.2
2016-12-05T12:49:10.667Z,90.01
2016-12-05T12:50:11.057Z,90.11
2016-12-05T12:51:10.669Z,90.2
2016-12-05T12:52:10.981Z,90.39
2016-12-05T12:53:11.441Z,91.53